Time;durP1;ratioP1;P1;durP2;ratioP2;P2;SDS_P1;SDS_P2;PMS_P1;PMS_P2;Temp;Humidity;BMP_temperature;BMP_pressure;BME280_temperature;BME280_humidity;BME280_pressure;Samples;Min_cycle;Max_cycle;Signal;HPM_P1;HPM_P2
2024/03/29 01:44:15;;;;;;;;;;;;;;;3.14;100.00;94238.78;10426309;28;2564;-68
2024/03/29 01:49:17;;;;;;;;;;;;;;;3.16;100.00;94246.47;10442994;28;2861;-69
2024/03/29 01:54:19;;;;;;;;;;;;;;;3.17;100.00;94248.84;10437735;28;2896;-68
2024/03/29 01:59:20;;;;;;;;;;;;;;;3.27;100.00;94257.91;10440411;28;2814;-69
2024/03/29 02:04:22;;;;;;;;;;;;;;;3.21;100.00;94249.94;10441782;28;2776;-68
2024/03/29 02:09:23;;;;;;;;;;;;;;;3.24;100.00;94254.72;10441384;28;2845;-70
2024/03/29 02:14:25;;;;;;;;;;;;;;;3.26;100.00;94241.19;10435865;28;2777;-68
2024/03/29 02:19:26;;;;;;;;;;;;;;;3.22;100.00;94238.25;10443606;28;2804;-67
2024/03/29 02:24:28;;;;;;;;;;;;;;;3.24;100.00;94236.13;10441778;28;2763;-68
2024/03/29 02:29:31;;;;;;;;;;;;;;;3.19;100.00;94241.44;10421251;28;2817;-72
2024/03/29 02:34:33;;;;;;;;;;;;;;;3.14;100.00;94233.47;10435807;28;2678;-67
2024/03/29 02:39:36;;;;;;;;;;;;;;;3.09;100.00;94236.09;10435746;28;2936;-68
2024/03/29 02:44:37;;;;;;;;;;;;;;;3.00;100.00;94235.06;10439701;28;2605;-67
2024/03/29 02:49:39;;;;;;;;;;;;;;;3.02;100.00;94230.25;10441050;28;2830;-67
2024/03/29 02:54:41;;;;;;;;;;;;;;;2.96;100.00;94228.66;10456757;28;2818;-67
2024/03/29 02:59:47;;;;;;;;;;;;;;;2.90;100.00;94232.38;10415476;28;2550;-71
2024/03/29 03:04:49;;;;;;;;;;;;;;;2.77;100.00;94232.88;10425149;28;2986;-70
2024/03/29 03:15:09;;;;;;;;;;;;;;;2.76;100.00;94225.97;10417177;28;2880;-73
2024/03/29 03:20:13;;;;;;;;;;;;;;;2.74;100.00;94217.50;10417384;28;2778;-69
2024/03/29 03:25:15;;;;;;;;;;;;;;;2.72;100.00;94201.81;10433582;28;2915;-70
2024/03/29 03:30:16;;;;;;;;;;;;;;;2.72;100.00;94205.25;10414484;28;2756;-69
2024/03/29 03:35:17;;;;;;;;;;;;;;;2.69;100.00;94183.78;10417832;28;2595;-69
2024/03/29 03:40:19;;;;;;;;;;;;;;;2.71;100.00;94193.06;10415937;28;3000;-68
2024/03/29 03:45:21;;;;;;;;;;;;;;;2.81;100.00;94186.19;10415349;28;3014;-69
2024/03/29 03:50:23;;;;;;;;;;;;;;;2.83;100.00;94174.25;10433456;28;2874;-68
2024/03/29 03:55:24;;;;;;;;;;;;;;;2.89;100.00;94191.75;10419507;28;2714;-69
2024/03/29 04:00:26;;;;;;;;;;;;;;;2.85;100.00;94184.59;10415152;28;2845;-68
2024/03/29 04:05:28;;;;;;;;;;;;;;;2.95;100.00;94166.03;10419637;28;2836;-68
2024/03/29 04:10:30;;;;;;;;;;;;;;;2.91;100.00;94188.84;10422272;28;2710;-71
2024/03/29 04:15:33;;;;;;;;;;;;;;;2.96;100.00;94188.84;10418173;28;2984;-74
2024/03/29 04:20:35;;;;;;;;;;;;;;;2.98;100.00;94173.44;10417130;28;2372;-71
2024/03/29 04:25:36;;;;;;;;;;;;;;;3.08;100.00;94176.13;10412861;28;3301;-69
2024/03/29 04:30:38;;;;;;;;;;;;;;;3.05;100.00;94165.22;10414565;28;2978;-71
2024/03/29 04:35:40;;;;;;;;;;;;;;;2.96;100.00;94144.50;10414376;28;2943;-73
2024/03/29 04:40:42;;;;;;;;;;;;;;;2.96;100.00;94125.94;10421578;28;2900;-71
2024/03/29 04:45:43;;;;;;;;;;;;;;;3.04;100.00;94127.25;10413855;28;2896;-68
2024/03/29 04:50:45;;;;;;;;;;;;;;;3.05;100.00;94150.09;10421157;28;2894;-68
2024/03/29 04:55:48;;;;;;;;;;;;;;;3.13;100.00;94159.41;10414936;28;2566;-69
2024/03/29 05:00:49;;;;;;;;;;;;;;;3.12;100.00;94163.91;10417071;28;2648;-70
2024/03/29 05:05:51;;;;;;;;;;;;;;;3.16;100.00;94164.94;10413628;28;2879;-69
2024/03/29 05:10:53;;;;;;;;;;;;;;;3.28;100.00;94172.66;10418046;28;2800;-72
2024/03/29 05:15:55;;;;;;;;;;;;;;;3.47;100.00;94162.28;10416427;28;2957;-71
2024/03/29 05:20:58;;;;;;;;;;;;;;;3.71;100.00;94157.97;10396369;28;2465;-68
2024/03/29 05:26:00;;;;;;;;;;;;;;;3.88;100.00;94165.66;10425795;28;2832;-67
2024/03/29 05:31:02;;;;;;;;;;;;;;;3.80;100.00;94140.41;10407017;28;2511;-68
2024/03/29 05:36:08;;;;;;;;;;;;;;;3.76;100.00;94126.06;10415791;28;2883;-69
2024/03/29 05:41:10;;;;;;;;;;;;;;;3.96;100.00;94098.63;10394581;28;2878;-72
2024/03/29 05:46:12;;;;;;;;;;;;;;;4.11;100.00;94087.09;10410808;28;2851;-68
2024/03/29 05:51:15;;;;;;;;;;;;;;;4.24;100.00;94091.81;10411891;28;2905;-68
2024/03/29 05:56:17;;;;;;;;;;;;;;;4.40;100.00;94078.44;10409616;28;2579;-69
2024/03/29 06:01:20;;;;;;;;;;;;;;;4.59;100.00;94092.69;10410603;28;2914;-68
2024/03/29 06:06:23;;;;;;;;;;;;;;;4.74;100.00;94105.88;10407640;28;2828;-68
2024/03/29 06:11:25;;;;;;;;;;;;;;;4.94;100.00;94112.91;10411929;28;2826;-67
2024/03/29 06:21:46;;;;;;;;;;;;;;;5.81;100.00;94133.44;10414081;28;2758;-69
2024/03/29 06:26:52;;;;;;;;;;;;;;;6.64;100.00;94124.16;10411535;28;2684;-68
2024/03/29 06:31:54;;;;;;;;;;;;;;;7.27;100.00;94143.22;10418127;28;2834;-68
2024/03/29 06:36:55;;;;;;;;;;;;;;;7.47;100.00;94157.34;10419267;28;2823;-69
2024/03/29 06:41:57;;;;;;;;;;;;;;;7.61;100.00;94119.91;10422702;28;2602;-69
2024/03/29 06:46:58;;;;;;;;;;;;;;;8.06;100.00;94132.44;10441255;28;2646;-68
2024/03/29 06:52:01;;;;;;;;;;;;;;;8.34;100.00;94137.81;10423371;28;2802;-70
2024/03/29 06:57:02;;;;;;;;;;;;;;;8.54;100.00;94137.41;10422684;28;2824;-68
2024/03/29 07:02:04;;;;;;;;;;;;;;;8.70;100.00;94112.97;10415907;28;2886;-67
2024/03/29 07:07:06;;;;;;;;;;;;;;;8.98;100.00;94119.03;10423730;28;2816;-69
2024/03/29 07:12:07;;;;;;;;;;;;;;;9.06;100.00;94105.69;10421611;28;2840;-69
2024/03/29 07:17:09;;;;;;;;;;;;;;;9.24;100.00;94108.50;10400786;28;2813;-69
2024/03/29 07:22:11;;;;;;;;;;;;;;;9.41;100.00;94095.19;10412337;28;2919;-69
2024/03/29 07:27:16;;;;;;;;;;;;;;;9.81;100.00;94087.22;10418007;28;2607;-70
2024/03/29 07:32:20;;;;;;;;;;;;;;;9.61;100.00;94091.22;10403736;28;2383;-67
2024/03/29 07:37:22;;;;;;;;;;;;;;;10.04;100.00;94086.00;10412058;28;2928;-67
2024/03/29 07:42:25;;;;;;;;;;;;;;;10.70;100.00;94097.59;10399107;28;2800;-69
2024/03/29 07:47:30;;;;;;;;;;;;;;;11.37;100.00;94110.53;10413715;28;2943;-72
2024/03/29 07:52:32;;;;;;;;;;;;;;;12.73;100.00;94120.69;10415567;28;3350;-69
2024/03/29 07:57:36;;;;;;;;;;;;;;;13.28;100.00;94125.06;10416078;28;2863;-70
2024/03/29 08:02:38;;;;;;;;;;;;;;;13.69;100.00;94130.41;10420747;28;2722;-71
2024/03/29 08:07:39;;;;;;;;;;;;;;;13.64;97.49;94122.50;10422771;28;2887;-73
2024/03/29 08:12:41;;;;;;;;;;;;;;;14.18;90.89;94129.72;10418364;28;2843;-74
2024/03/29 08:17:45;;;;;;;;;;;;;;;14.43;89.14;94123.19;10422812;28;2685;-69
2024/03/29 08:22:47;;;;;;;;;;;;;;;13.75;97.00;94120.19;10413934;28;2808;-69
2024/03/29 08:27:58;;;;;;;;;;;;;;;13.55;100.00;94113.72;10415008;28;2839;-68
2024/03/29 08:33:02;;;;;;;;;;;;;;;13.61;100.00;94114.28;10416833;28;2330;-68
2024/03/29 08:38:03;;;;;;;;;;;;;;;13.87;100.00;94095.91;10415292;28;2847;-69
2024/03/29 08:43:05;;;;;;;;;;;;;;;14.66;92.84;94109.25;10409386;28;2847;-68
2024/03/29 08:48:06;;;;;;;;;;;;;;;15.45;83.31;94099.59;10428294;28;2534;-71
2024/03/29 08:53:08;;;;;;;;;;;;;;;15.74;80.24;94092.28;10399438;28;2805;-69
2024/03/29 08:58:10;;;;;;;;;;;;;;;15.79;80.63;94092.81;10416432;28;2982;-69
2024/03/29 09:03:11;;;;;;;;;;;;;;;16.08;80.13;94094.31;10421954;28;2688;-70
2024/03/29 09:08:13;;;;;;;;;;;;;;;16.35;77.46;94089.97;10417049;28;2867;-69
2024/03/29 09:13:14;;;;;;;;;;;;;;;16.42;73.11;94083.94;10415693;28;2804;-69
2024/03/29 09:18:23;;;;;;;;;;;;;;;16.61;72.79;94094.06;10419537;28;2795;-68
2024/03/29 09:23:25;;;;;;;;;;;;;;;17.07;69.56;94092.41;10412780;28;2812;-69
2024/03/29 09:28:27;;;;;;;;;;;;;;;17.13;65.12;94082.06;10410048;28;2653;-72
2024/03/29 09:33:28;;;;;;;;;;;;;;;17.45;68.16;94086.22;10419744;28;2908;-72
2024/03/29 09:38:30;;;;;;;;;;;;;;;17.64;74.36;94082.72;10409617;28;2804;-72
2024/03/29 09:43:31;;;;;;;;;;;;;;;17.45;68.80;94078.06;10416021;28;2784;-70
2024/03/29 09:48:36;;;;;;;;;;;;;;;17.91;67.69;94086.34;10410986;28;2859;-69
2024/03/29 09:53:37;;;;;;;;;;;;;;;18.54;62.48;94087.78;10411369;28;2863;-69
2024/03/29 09:58:39;;;;;;;;;;;;;;;18.76;61.65;94089.72;10392659;28;2816;-70
2024/03/29 10:03:41;;;;;;;;;;;;;;;18.36;69.61;94085.56;10407855;28;2860;-70
2024/03/29 10:08:42;;;;;;;;;;;;;;;18.32;67.34;94087.47;10421743;28;2819;-73
2024/03/29 10:13:44;;;;;;;;;;;;;;;18.74;64.22;94081.13;10420242;28;2908;-71
2024/03/29 10:18:47;;;;;;;;;;;;;;;18.64;69.65;94084.47;10422285;28;2760;-69
2024/03/29 10:23:49;;;;;;;;;;;;;;;18.61;82.98;94087.91;10420126;28;2902;-71
2024/03/29 10:28:51;;;;;;;;;;;;;;;18.95;81.80;94077.16;10410181;28;2950;-71
2024/03/29 10:33:54;;;;;;;;;;;;;;;19.02;67.84;94077.25;10415461;28;2736;-69
2024/03/29 10:38:59;;;;;;;;;;;;;;;19.14;48.36;94066.13;10421773;28;2901;-70
2024/03/29 10:44:00;;;;;;;;;;;;;;;19.50;45.83;94061.91;10411496;28;2570;-71
2024/03/29 10:49:03;;;;;;;;;;;;;;;19.79;43.95;94057.59;10417181;28;2642;-68
2024/03/29 10:54:04;;;;;;;;;;;;;;;20.43;42.28;94044.56;10401660;28;2854;-69
2024/03/29 10:59:06;;;;;;;;;;;;;;;20.58;41.15;94031.03;10415537;28;2781;-67
2024/03/29 11:04:09;;;;;;;;;;;;;;;21.29;40.17;94032.25;10422915;28;3026;-75
2024/03/29 11:09:14;;;;;;;;;;;;;;;21.56;39.49;94029.22;10418608;28;2899;-71
2024/03/29 11:14:15;;;;;;;;;;;;;;;21.48;39.00;94020.22;10419013;28;2866;-70
2024/03/29 11:19:18;;;;;;;;;;;;;;;20.94;39.42;94015.69;10417947;28;2739;-70
2024/03/29 11:24:20;;;;;;;;;;;;;;;21.20;38.74;94017.38;10417841;28;2831;-69
2024/03/29 11:29:22;;;;;;;;;;;;;;;21.36;39.37;94022.53;10403616;28;2846;-68
2024/03/29 11:34:24;;;;;;;;;;;;;;;21.55;36.67;94017.50;10409760;28;2859;-70
2024/03/29 11:39:28;;;;;;;;;;;;;;;21.32;36.89;94019.78;10404568;28;2862;-68
2024/03/29 11:44:30;;;;;;;;;;;;;;;21.13;37.61;94018.13;10410050;28;2678;-70
2024/03/29 11:49:33;;;;;;;;;;;;;;;20.49;39.22;94007.59;10429840;28;2796;-70
2024/03/29 11:54:37;;;;;;;;;;;;;;;20.68;38.07;94016.69;10417001;28;2932;-73
2024/03/29 11:59:39;;;;;;;;;;;;;;;20.42;40.31;94006.72;10409503;28;2866;-75
2024/03/29 12:04:42;;;;;;;;;;;;;;;20.10;41.01;94007.22;10411369;28;2893;-71
2024/03/29 12:09:44;;;;;;;;;;;;;;;20.06;41.86;94000.19;10412169;28;2733;-69
2024/03/29 12:14:47;;;;;;;;;;;;;;;20.50;40.54;94000.97;10417517;28;2859;-70
2024/03/29 12:19:51;;;;;;;;;;;;;;;21.32;39.56;93997.94;10414805;28;2883;-69
2024/03/29 12:24:52;;;;;;;;;;;;;;;22.18;36.43;93973.50;10407991;28;3017;-68
2024/03/29 12:29:54;;;;;;;;;;;;;;;22.19;36.13;93978.56;10406526;28;2776;-69
2024/03/29 12:35:03;;;;;;;;;;;;;;;22.21;36.25;93959.81;10429585;28;2892;-68
2024/03/29 12:40:11;;;;;;;;;;;;;;;21.87;37.33;93956.63;10405167;28;2864;-67
2024/03/29 12:45:13;;;;;;;;;;;;;;;21.83;36.06;93955.88;10399239;28;2869;-70
2024/03/29 12:50:15;;;;;;;;;;;;;;;21.69;36.36;93942.94;10407511;28;2745;-68
2024/03/29 12:55:23;;;;;;;;;;;;;;;21.33;38.23;93933.91;10408118;28;2930;-69
2024/03/29 13:00:25;;;;;;;;;;;;;;;21.26;38.22;93933.84;10411051;28;2775;-68
2024/03/29 13:05:27;;;;;;;;;;;;;;;21.41;36.84;93910.09;10410821;28;2814;-71
2024/03/29 13:10:31;;;;;;;;;;;;;;;21.64;35.93;93912.47;10407227;28;2618;-71
2024/03/29 13:15:34;;;;;;;;;;;;;;;21.58;35.76;93901.94;10406425;28;2943;-70
2024/03/29 13:20:36;;;;;;;;;;;;;;;21.42;36.09;93900.72;10412921;28;2807;-73
2024/03/29 13:25:39;;;;;;;;;;;;;;;21.23;36.56;93907.28;10425497;28;2753;-67
2024/03/29 13:30:43;;;;;;;;;;;;;;;21.09;35.60;93890.84;10406552;28;2835;-68
2024/03/29 13:35:45;;;;;;;;;;;;;;;21.39;34.99;93885.88;10425903;28;2969;-69
2024/03/29 13:40:50;;;;;;;;;;;;;;;21.44;34.45;93881.97;10422776;28;2777;-68
2024/03/29 13:45:52;;;;;;;;;;;;;;;21.41;34.58;93890.97;10408783;28;2840;-68
2024/03/29 13:50:53;;;;;;;;;;;;;;;21.53;33.84;93883.16;10414930;28;2891;-68
2024/03/29 13:55:55;;;;;;;;;;;;;;;21.13;35.28;93880.72;10425797;28;2836;-68
2024/03/29 14:00:59;;;;;;;;;;;;;;;21.24;34.75;93890.50;10408825;28;2865;-69
2024/03/29 14:06:01;;;;;;;;;;;;;;;21.27;35.24;93886.22;10406407;28;2868;-69
2024/03/29 14:11:03;;;;;;;;;;;;;;;21.14;34.23;93887.75;10403730;28;2886;-69
2024/03/29 14:16:04;;;;;;;;;;;;;;;21.22;34.86;93883.88;10404898;28;2661;-74
2024/03/29 14:21:06;;;;;;;;;;;;;;;21.11;34.68;93892.03;10410312;28;2804;-68
2024/03/29 14:26:09;;;;;;;;;;;;;;;21.32;33.51;93885.88;10404918;28;2883;-68
2024/03/29 14:31:11;;;;;;;;;;;;;;;21.29;34.37;93879.22;10408802;28;2876;-68
2024/03/29 14:36:12;;;;;;;;;;;;;;;21.32;33.78;93877.69;10423933;28;2672;-69
2024/03/29 14:41:14;;;;;;;;;;;;;;;21.35;33.69;93881.59;10418914;28;2811;-69
2024/03/29 14:46:20;;;;;;;;;;;;;;;21.36;34.29;93877.66;10412642;28;2574;-70
2024/03/29 14:51:25;;;;;;;;;;;;;;;21.25;34.90;93877.66;10418088;28;2862;-69
2024/03/29 14:56:30;;;;;;;;;;;;;;;21.40;34.42;93871.06;10414763;28;3011;-69
2024/03/29 15:01:31;;;;;;;;;;;;;;;21.47;34.51;93879.25;10413995;28;2882;-70
2024/03/29 15:06:33;;;;;;;;;;;;;;;21.54;34.36;93887.47;10397427;28;2662;-69
2024/03/29 15:11:35;;;;;;;;;;;;;;;21.31;35.09;93887.03;10409427;28;2835;-70
2024/03/29 15:16:36;;;;;;;;;;;;;;;21.39;34.54;93888.63;10411882;28;2717;-69
2024/03/29 15:21:40;;;;;;;;;;;;;;;21.61;35.05;93885.91;10416324;28;2825;-69
2024/03/29 15:26:41;;;;;;;;;;;;;;;21.28;33.48;93895.97;10416514;28;2811;-70
2024/03/29 15:31:47;;;;;;;;;;;;;;;21.11;32.80;93905.69;10411799;28;2791;-70
2024/03/29 15:36:48;;;;;;;;;;;;;;;20.84;33.52;93924.31;10412326;28;2862;-72
2024/03/29 15:41:50;;;;;;;;;;;;;;;20.71;33.00;93920.34;10427791;28;2832;-69
2024/03/29 15:46:51;;;;;;;;;;;;;;;20.49;33.63;93911.28;10412779;28;2834;-69
2024/03/29 15:51:53;;;;;;;;;;;;;;;20.26;34.09;93916.97;10403090;28;2785;-70
2024/03/29 15:56:54;;;;;;;;;;;;;;;20.13;34.75;93930.13;10408003;28;2878;-70
2024/03/29 16:01:56;;;;;;;;;;;;;;;20.02;35.16;93925.75;10388495;28;2604;-71
2024/03/29 16:06:57;;;;;;;;;;;;;;;19.82;35.70;93925.19;10407669;28;2711;-69
2024/03/29 16:11:59;;;;;;;;;;;;;;;19.64;36.72;93919.59;10415095;28;2828;-71
2024/03/29 16:17:01;;;;;;;;;;;;;;;19.48;35.65;93925.25;10417623;28;2822;-69
2024/03/29 16:22:04;;;;;;;;;;;;;;;19.20;36.74;93933.13;10416108;28;2846;-68
2024/03/29 16:27:06;;;;;;;;;;;;;;;18.93;37.65;93935.94;10417932;28;2764;-72
2024/03/29 16:32:09;;;;;;;;;;;;;;;18.75;38.15;93946.59;10415818;28;2844;-70
2024/03/29 16:37:10;;;;;;;;;;;;;;;18.53;39.45;93934.66;10409319;28;2960;-73
2024/03/29 16:42:12;;;;;;;;;;;;;;;18.40;40.47;93949.63;10414821;28;2825;-69
2024/03/29 16:47:14;;;;;;;;;;;;;;;18.27;40.54;93949.06;10427429;28;2599;-69
2024/03/29 16:52:16;;;;;;;;;;;;;;;18.02;41.52;93945.16;10412177;28;2792;-71
2024/03/29 16:57:17;;;;;;;;;;;;;;;17.86;40.63;93933.63;10412958;28;2800;-70
2024/03/29 17:02:19;;;;;;;;;;;;;;;17.71;40.51;93943.47;10397790;28;2824;-69
2024/03/29 17:07:21;;;;;;;;;;;;;;;17.58;40.50;93945.59;10415686;28;2932;-69
2024/03/29 17:12:24;;;;;;;;;;;;;;;17.66;39.92;93941.84;10412545;28;2769;-70
2024/03/29 17:17:26;;;;;;;;;;;;;;;17.46;40.22;93953.91;10411075;28;2591;-68
2024/03/29 17:22:27;;;;;;;;;;;;;;;17.28;41.34;93946.22;10425856;28;2768;-76
2024/03/29 17:27:29;;;;;;;;;;;;;;;17.08;41.80;93944.69;10413981;28;2607;-71
2024/03/29 17:32:31;;;;;;;;;;;;;;;16.95;42.25;93951.41;10415080;28;2788;-69
2024/03/29 17:37:33;;;;;;;;;;;;;;;16.86;42.77;93964.38;10409633;28;2847;-69
2024/03/29 17:42:35;;;;;;;;;;;;;;;16.74;43.36;93959.91;10403996;28;2867;-72
2024/03/29 17:47:37;;;;;;;;;;;;;;;16.70;44.03;93967.97;10390972;28;2783;-74
2024/03/29 17:52:39;;;;;;;;;;;;;;;16.66;43.45;93972.47;10410017;28;2888;-70
2024/03/29 17:57:41;;;;;;;;;;;;;;;16.49;44.43;93978.34;10405176;28;2813;-69
2024/03/29 18:02:45;;;;;;;;;;;;;;;16.50;43.74;93985.31;10410072;28;2958;-70
2024/03/29 18:07:47;;;;;;;;;;;;;;;16.35;44.26;93988.84;10406585;28;2826;-70
2024/03/29 18:12:48;;;;;;;;;;;;;;;16.20;44.63;93983.09;10404654;28;2605;-72
2024/03/29 18:17:50;;;;;;;;;;;;;;;16.26;44.52;93994.47;10406062;28;2720;-68
2024/03/29 18:22:52;;;;;;;;;;;;;;;16.15;46.72;94007.75;10407341;28;2798;-70
2024/03/29 18:27:53;;;;;;;;;;;;;;;15.91;51.44;94013.38;10399468;28;2774;-70
2024/03/29 18:32:55;;;;;;;;;;;;;;;15.73;52.85;94018.34;10413884;28;2863;-68
2024/03/29 18:37:56;;;;;;;;;;;;;;;15.78;53.56;94020.81;10414589;28;2927;-71
2024/03/29 18:42:58;;;;;;;;;;;;;;;15.70;52.96;94010.13;10412755;28;2815;-70
2024/03/29 18:48:00;;;;;;;;;;;;;;;15.64;52.76;94026.63;10416110;28;2781;-72
2024/03/29 18:53:01;;;;;;;;;;;;;;;15.64;52.08;94023.13;10412440;28;2789;-69
2024/03/29 18:58:03;;;;;;;;;;;;;;;15.73;50.48;94028.41;10400748;28;2734;-70
2024/03/29 19:03:04;;;;;;;;;;;;;;;15.55;52.11;94041.47;10414920;28;2777;-70
2024/03/29 19:08:06;;;;;;;;;;;;;;;15.38;52.17;94037.91;10424098;28;2655;-69
2024/03/29 19:13:08;;;;;;;;;;;;;;;15.30;53.02;94035.38;10414165;28;2789;-75
2024/03/29 19:18:12;;;;;;;;;;;;;;;15.24;53.81;94050.28;10413383;28;2650;-68
2024/03/29 19:23:14;;;;;;;;;;;;;;;15.19;53.77;94058.63;10416863;28;2710;-68
2024/03/29 19:28:15;;;;;;;;;;;;;;;15.14;53.93;94052.34;10416769;28;2751;-69
2024/03/29 19:33:18;;;;;;;;;;;;;;;15.20;53.05;94065.63;10409578;28;2857;-69
2024/03/29 19:38:20;;;;;;;;;;;;;;;15.24;50.43;94064.59;10406453;28;2837;-68
2024/03/29 19:43:23;;;;;;;;;;;;;;;15.41;47.94;94080.56;10411311;28;2649;-71
2024/03/29 19:48:24;;;;;;;;;;;;;;;15.34;48.15;94079.59;10415704;28;2774;-72
2024/03/29 19:53:27;;;;;;;;;;;;;;;15.37;47.77;94087.00;10410955;28;2810;-70
2024/03/29 19:58:29;;;;;;;;;;;;;;;15.30;49.00;94086.81;10409549;28;2868;-71
2024/03/29 20:03:30;;;;;;;;;;;;;;;15.31;47.40;94091.88;10418458;28;2806;-70
2024/03/29 20:08:33;;;;;;;;;;;;;;;15.19;48.48;94096.53;10418073;28;2791;-69
2024/03/29 20:13:34;;;;;;;;;;;;;;;15.09;49.95;94093.19;10409724;28;2776;-71
2024/03/29 20:18:36;;;;;;;;;;;;;;;14.91;51.66;94096.50;10414243;28;2891;-70
2024/03/29 20:23:39;;;;;;;;;;;;;;;14.83;53.64;94095.50;10415125;28;2820;-69
2024/03/29 20:28:41;;;;;;;;;;;;;;;14.61;57.17;94107.56;10409074;28;2733;-71
2024/03/29 20:33:43;;;;;;;;;;;;;;;14.62;57.39;94106.44;10394547;28;2783;-69
2024/03/29 20:38:44;;;;;;;;;;;;;;;14.51;58.88;94111.53;10409241;28;2888;-75
2024/03/29 20:43:46;;;;;;;;;;;;;;;14.40;60.57;94107.66;10424797;28;2832;-70
2024/03/29 20:48:48;;;;;;;;;;;;;;;14.33;61.45;94110.16;10410170;28;2337;-68
2024/03/29 20:53:50;;;;;;;;;;;;;;;14.26;62.11;94109.94;10408550;28;2828;-70
2024/03/29 20:58:53;;;;;;;;;;;;;;;14.34;60.86;94112.50;10415820;28;2889;-71
2024/03/29 21:09:19;;;;;;;;;;;;;;;14.20;63.08;94112.06;10410435;28;2804;-69
2024/03/29 21:14:21;;;;;;;;;;;;;;;14.24;62.47;94117.56;10411133;28;2819;-70
2024/03/29 21:19:24;;;;;;;;;;;;;;;14.23;62.17;94115.97;10406623;28;2832;-71
2024/03/29 21:24:26;;;;;;;;;;;;;;;14.15;63.45;94116.88;10395662;28;2823;-71
2024/03/29 21:29:28;;;;;;;;;;;;;;;13.96;65.77;94118.19;10397718;28;2829;-70
2024/03/29 21:34:31;;;;;;;;;;;;;;;13.78;68.35;94116.81;10416143;28;2766;-70
2024/03/29 21:39:33;;;;;;;;;;;;;;;13.70;69.79;94117.69;10407589;28;2748;-70
2024/03/29 21:44:39;;;;;;;;;;;;;;;13.57;70.57;94126.88;10411496;28;2810;-70
2024/03/29 21:49:40;;;;;;;;;;;;;;;13.60;69.95;94126.97;10411423;28;2835;-70
2024/03/29 21:54:42;;;;;;;;;;;;;;;13.55;70.16;94131.78;10413821;28;2555;-71
2024/03/29 21:59:44;;;;;;;;;;;;;;;13.39;71.63;94132.41;10404035;28;2548;-69
2024/03/29 22:04:46;;;;;;;;;;;;;;;13.49;71.05;94140.13;10420987;28;2820;-70
2024/03/29 22:09:48;;;;;;;;;;;;;;;13.50;70.76;94144.41;10418506;28;2799;-72
2024/03/29 22:14:52;;;;;;;;;;;;;;;13.60;68.84;94155.91;10420521;28;2681;-71
2024/03/29 22:19:55;;;;;;;;;;;;;;;13.58;69.31;94145.44;10419824;28;2890;-76
2024/03/29 22:24:57;;;;;;;;;;;;;;;13.47;70.77;94145.03;10415692;28;2874;-70
2024/03/29 22:29:59;;;;;;;;;;;;;;;13.51;68.95;94148.66;10398317;28;2750;-69
2024/03/29 22:35:04;;;;;;;;;;;;;;;13.48;68.94;94154.72;10419780;28;2887;-71
2024/03/29 22:40:06;;;;;;;;;;;;;;;13.52;68.00;94150.25;10422945;28;2855;-70
2024/03/29 22:45:08;;;;;;;;;;;;;;;13.53;67.61;94148.34;10416204;28;2773;-68
2024/03/29 22:50:10;;;;;;;;;;;;;;;13.48;68.65;94151.22;10435469;28;2980;-71
2024/03/29 22:55:11;;;;;;;;;;;;;;;13.40;67.91;94139.38;10402634;28;2940;-70
2024/03/29 23:00:15;;;;;;;;;;;;;;;13.49;66.32;94128.53;10411734;28;2972;-73
2024/03/29 23:05:16;;;;;;;;;;;;;;;13.55;63.71;94134.50;10416775;28;2828;-69
2024/03/29 23:10:19;;;;;;;;;;;;;;;13.65;63.04;94142.19;10416656;28;2883;-67
2024/03/29 23:15:21;;;;;;;;;;;;;;;13.71;60.76;94148.97;10417626;28;2753;-69
2024/03/29 23:20:23;;;;;;;;;;;;;;;13.73;60.21;94149.41;10416429;28;2980;-69
2024/03/29 23:25:25;;;;;;;;;;;;;;;13.69;59.97;94153.91;10403537;28;2820;-69
2024/03/29 23:30:28;;;;;;;;;;;;;;;13.67;59.82;94158.84;10419987;28;2793;-69
2024/03/29 23:35:31;;;;;;;;;;;;;;;13.52;62.00;94157.56;10410990;28;2619;-69
2024/03/29 23:40:33;;;;;;;;;;;;;;;13.50;61.51;94163.28;10411464;28;2945;-69
2024/03/29 23:45:35;;;;;;;;;;;;;;;13.47;62.47;94161.25;10413428;28;2536;-68
2024/03/29 23:50:37;;;;;;;;;;;;;;;13.45;63.10;94158.09;10415779;28;2873;-71
2024/03/29 23:55:38;;;;;;;;;;;;;;;13.29;64.65;94164.41;10412374;28;2797;-68
